DIRECCIÓN GENERAL DE AERONÁUTICA CIVIL
DIRECCIÓN METEOROLÓGICA DE CHILE
INFORMACIÓN METAR Y TAF

FIR PUERTO MONTT

Estación: SCQP
METAR SCQP 011900Z 26014KT 220V300 CAVOK 26/12 Q1015=

TAF SCQP 011631Z 0118/0218 24008KT CAVOK TX26/0120Z TN08/0209Z TEMPO 0120/0102 FEW030 BECMG 0202/0204 VRB02KT BECMG 0208/0210 3000 BR BKN005 BECMG 0213/0214 9999 NSW CAVOK=

Estación: SCVD
METAR SCVD 011900Z 16007KT 120V210 CAVOK 29/12 Q1015=

TAF SCVD 011632Z 0118/0206 16007KT CAVOK TX25/0119Z TN11/0206Z=

Estación: SCJO
METAR SCJO 011900Z 18013KT 9999 FEW025 26/12 Q1016=

TAF SCJO 011633Z 0118/0206 17007KT CAVOK TX26/0120Z TN12/0206Z=

Estación: SCTE
METAR SCTE 011900Z 14013KT 9999 FEW023 21/10 Q1019 NOSIG=

TAF SCTE 011634Z 0118/0218 15013KT 9999 FEW020 TX22/0109Z TN09/0209Z BECMG 0204/0204 20003KT BKN015 BECMG 0212/0215 16013KT=

Estación: SCPQ
METAR SCPQ 011900Z 13009KT 090V180 CAVOK 21/11 Q1019=

TAF SCPQ 011639Z 0118/0206 20013KT 9999 FEW030 TX20/0120Z TN14/0206Z=

Estación: SCON
METAR SCON 011900Z AUTO 19009KT 160V220 CAVOK 19/09 Q1021=

TAF SCON 011635Z 0118/0206 20012KT 9999 FEW022 TX19/0120Z TN14/0206Z=

Estación: SCTN
METAR SCTN 011900Z AUTO 18015KT CAVOK 16/11 Q1020=

NIL=

Estación: SCFT
METAR SCFT 011900Z AUTO 26005KT 180V310 //// SKC 24/03 Q1017=

NIL=

Estación: SCAP
METAR SCAP 011900Z AUTO 24008KT 190V270 //// // NSC 25/03 Q1022=

NIL=

Estación: SCMK
METAR SCMK 311600Z 04008KT CAVOK 17/12 Q1015=

TAF SCMK 011636Z 0118/0206 18012KT 9999 FEW022 TX19/0120Z TN14/0206Z=

Estación: SCAS
METAR SCAS 301900Z 25008KT 9999 FEW016 OVC036 15/12 Q1014=

NIL=

Estación: SCCY
METAR SCCY 011900Z 21005KT CAVOK 22/04 Q1018 =

TAF SCCY 011637Z 0118/0206 24005KT 9999 FEW036 TX22/0119Z TN09/0206Z=

Estación: SCBA
METAR SCBA 011900Z 30017KT CAVOK 20/04 Q1017=

TAF SCBA 011638Z 0118/0218 30018KT CAVOK TX19/0119Z TN05/0209Z BECMG 0207/0209 VRB02KT=

Estación: SCCC
METAR SCCC 301900Z 27017G27KT 9999 FEW040 26/06 Q1008=

NIL=

Estación: SCHR
METAR SCHR 301900Z 22010KT 9999 BKN040 22/09 Q1005=

TAF SCHR 301043Z 3012/3100 31005KT CAVOK TX24/3018Z TN14/3012Z TEMPO 3016/3020 35005KT=


Volver